createdAt,value
2019-02-04T00:00:28.923Z,16.67
2019-02-04T00:02:58.615Z,12.23
2019-02-04T00:05:27.137Z,13.53
2019-02-04T00:07:55.757Z,12.37
2019-02-04T00:10:24.360Z,11.77
2019-02-04T00:12:52.841Z,13.30
2019-02-04T00:15:22.072Z,14.50
2019-02-04T00:17:50.680Z,15.17
2019-02-04T00:20:19.213Z,12.77
2019-02-04T00:22:47.782Z,11.57
2019-02-04T00:25:16.332Z,15.80
2019-02-04T00:27:44.861Z,12.90
2019-02-04T00:30:21.568Z,13.10
2019-02-04T00:32:50.187Z,16.13
2019-02-04T00:35:18.837Z,13.50
2019-02-04T00:37:47.385Z,12.83
2019-02-04T00:40:18.971Z,13.67
2019-02-04T00:42:47.799Z,15.10
2019-02-04T00:45:16.347Z,13.63
2019-02-04T00:47:44.878Z,18.03
2019-02-04T00:50:18.551Z,17.67
2019-02-04T00:52:47.087Z,14.07
2019-02-04T00:55:15.880Z,10.77
2019-02-04T00:57:44.732Z,13.33
2019-02-04T01:00:21.864Z,12.20
2019-02-04T01:02:50.486Z,10.47
2019-02-04T01:05:19.849Z,15.93
2019-02-04T01:07:49.200Z,9.57
2019-02-04T01:10:23.409Z,9.40
2019-02-04T01:12:52.117Z,13.37
2019-02-04T01:15:20.786Z,16.20
2019-02-04T01:17:49.319Z,13.70
2019-02-04T01:20:23.718Z,13.23
2019-02-04T01:22:52.627Z,13.07
2019-02-04T01:25:21.619Z,11.13
2019-02-04T01:27:50.299Z,11.83
2019-02-04T01:30:21.102Z,14.77
2019-02-04T01:32:49.643Z,11.87
2019-02-04T01:35:18.280Z,13.93
2019-02-04T01:37:47.022Z,15.77
2019-02-04T01:40:23.917Z,11.67
2019-02-04T01:42:53.027Z,12.07
2019-02-04T01:45:21.721Z,13.93
2019-02-04T01:47:50.327Z,12.27
2019-02-04T01:50:20.931Z,14.10
2019-02-04T01:52:49.622Z,12.57
2019-02-04T01:55:18.242Z,12.83
2019-02-04T01:57:51.655Z,14.17
2019-02-04T02:00:28.982Z,10.80
2019-02-04T02:02:57.866Z,13.97
2019-02-04T02:05:26.498Z,14.00
2019-02-04T02:07:55.087Z,12.33
2019-02-04T02:10:25.317Z,11.73
2019-02-04T02:12:54.403Z,15.00
2019-02-04T02:15:23.101Z,13.50
2019-02-04T02:17:51.894Z,17.87
2019-02-04T02:20:23.554Z,12.90
2019-02-04T02:22:52.097Z,14.83
2019-02-04T02:25:20.709Z,12.13
2019-02-04T02:27:49.332Z,14.87
2019-02-04T02:30:29.247Z,13.63
2019-02-04T02:32:57.775Z,10.10
2019-02-04T02:35:26.311Z,10.80
2019-02-04T02:37:54.879Z,11.20
2019-02-04T02:40:26.520Z,15.00
2019-02-04T02:42:55.041Z,10.63
2019-02-04T02:45:23.596Z,10.07
2019-02-04T02:47:52.262Z,11.03
2019-02-04T02:50:20.864Z,13.83
2019-02-04T02:52:49.334Z,12.20
2019-02-04T02:55:18.814Z,15.50
2019-02-04T02:57:47.424Z,11.70
2019-02-04T03:00:19.338Z,12.57
2019-02-04T03:02:48.351Z,10.87
2019-02-04T03:05:17.986Z,15.20
2019-02-04T03:07:46.929Z,13.77
2019-02-04T03:10:24.259Z,12.87
2019-02-04T03:12:53.183Z,15.53
2019-02-04T03:15:21.918Z,12.27
2019-02-04T03:17:52.462Z,16.13
2019-02-04T03:20:21.083Z,11.57
2019-02-04T03:22:50.325Z,14.20
2019-02-04T03:25:19.085Z,17.87
2019-02-04T03:27:47.938Z,14.27
2019-02-04T03:30:22.683Z,15.37
2019-02-04T03:32:51.596Z,13.97
2019-02-04T03:35:20.160Z,13.43
2019-02-04T03:37:48.859Z,12.70
2019-02-04T03:40:24.398Z,16.17
2019-02-04T03:42:52.931Z,15.17
2019-02-04T03:45:40.793Z,16.00
2019-02-04T03:48:21.937Z,13.10
2019-02-04T03:51:02.573Z,14.57
2019-02-04T03:53:43.347Z,11.83
2019-02-04T03:56:24.024Z,16.37
2019-02-04T03:59:04.764Z,13.43
2019-02-04T04:01:45.609Z,13.70
2019-02-04T04:04:26.604Z,15.03
2019-02-04T04:07:07.073Z,12.47
2019-02-04T04:09:47.770Z,15.60
2019-02-04T04:12:28.724Z,14.83
2019-02-04T04:15:09.534Z,10.60
2019-02-04T04:17:50.509Z,15.37
2019-02-04T04:20:29.639Z,14.77
2019-02-04T04:23:17.438Z,13.43
2019-02-04T04:26:05.250Z,13.13
2019-02-04T04:28:45.943Z,14.00
2019-02-04T04:31:26.981Z,17.20
2019-02-04T04:34:07.765Z,19.00
2019-02-04T04:36:48.247Z,11.97
2019-02-04T04:39:28.505Z,11.83
2019-02-04T04:42:09.440Z,13.53
2019-02-04T04:44:50.352Z,14.77
2019-02-04T04:47:31.153Z,13.47
2019-02-04T04:50:12.088Z,12.90
2019-02-04T04:52:40.552Z,16.77
2019-02-04T04:55:12.462Z,12.53
2019-02-04T04:57:40.943Z,12.53
2019-02-04T05:00:18.550Z,11.37
2019-02-04T05:02:47.021Z,14.50
2019-02-04T05:05:16.866Z,10.53
2019-02-04T05:07:45.426Z,11.17
2019-02-04T05:10:16.603Z,9.37
2019-02-04T05:12:45.209Z,13.50
2019-02-04T05:15:22.333Z,11.83
2019-02-04T05:17:52.742Z,11.57
2019-02-04T05:20:21.528Z,9.63
2019-02-04T05:22:50.146Z,14.90
2019-02-04T05:25:18.934Z,9.47
2019-02-04T05:27:47.443Z,13.53
2019-02-04T05:30:18.703Z,9.10
2019-02-04T05:32:47.440Z,14.87
2019-02-04T05:35:16.049Z,11.83
2019-02-04T05:37:44.835Z,10.80
2019-02-04T05:40:15.335Z,14.40
2019-02-04T05:42:44.253Z,11.13
2019-02-04T05:45:15.119Z,9.93
2019-02-04T05:47:43.674Z,8.60
2019-02-04T05:50:17.101Z,16.33
2019-02-04T05:52:44.808Z,16.23
2019-02-04T05:55:14.997Z,14.90
2019-02-04T05:57:44.347Z,12.00
2019-02-04T06:00:23.556Z,10.47
2019-02-04T06:02:52.087Z,13.07
2019-02-04T06:05:20.890Z,13.63
2019-02-04T06:07:49.423Z,9.70
2019-02-04T06:10:18.355Z,11.60
2019-02-04T06:12:46.820Z,10.73
2019-02-04T06:15:16.909Z,14.10
2019-02-04T06:17:45.513Z,10.77
2019-02-04T06:20:24.892Z,11.67
2019-02-04T06:22:53.900Z,13.30
2019-02-04T06:25:22.443Z,12.43
2019-02-04T06:27:51.069Z,10.00
2019-02-04T06:30:19.695Z,13.07
2019-02-04T06:32:48.259Z,12.00
2019-02-04T06:35:17.631Z,10.43
2019-02-04T06:37:47.043Z,11.20
2019-02-04T06:40:17.144Z,14.60
2019-02-04T06:42:45.980Z,10.57
2019-02-04T06:45:17.572Z,16.73
2019-02-04T06:47:46.264Z,10.70
2019-02-04T06:50:17.323Z,15.77
2019-02-04T06:52:45.914Z,10.40
2019-02-04T06:55:20.386Z,12.37
2019-02-04T06:57:48.934Z,11.83
2019-02-04T07:00:18.197Z,11.23
2019-02-04T07:02:46.823Z,9.77
2019-02-04T07:05:16.296Z,10.87
2019-02-04T07:07:44.955Z,13.57
2019-02-04T07:10:16.336Z,7.83
2019-02-04T07:12:45.036Z,12.80
2019-02-04T07:15:13.996Z,9.47
2019-02-04T07:17:42.708Z,10.60
2019-02-04T07:20:17.412Z,13.13
2019-02-04T07:22:45.962Z,13.03
2019-02-04T07:25:17.066Z,11.37
2019-02-04T07:27:45.594Z,10.20
2019-02-04T07:30:16.928Z,8.63
2019-02-04T07:32:45.715Z,8.60
2019-02-04T07:35:17.004Z,9.77
2019-02-04T07:37:45.664Z,10.43
2019-02-04T07:40:25.648Z,11.23
2019-02-04T07:42:54.835Z,10.33
2019-02-04T07:45:23.583Z,10.03
2019-02-04T07:47:52.509Z,9.70
2019-02-04T07:50:21.134Z,10.13
2019-02-04T07:52:49.769Z,12.03
2019-02-04T07:55:18.451Z,9.03
2019-02-04T07:57:46.987Z,10.97
2019-02-04T08:00:20.963Z,14.57
2019-02-04T08:02:49.648Z,9.17
2019-02-04T08:05:18.317Z,9.30
2019-02-04T08:07:46.950Z,11.20
2019-02-04T08:10:16.551Z,8.33
2019-02-04T08:12:45.194Z,11.57
2019-02-04T08:15:16.563Z,7.83
2019-02-04T08:17:45.165Z,12.93
2019-02-04T08:20:14.320Z,10.43
2019-02-04T08:22:42.933Z,9.53
2019-02-04T08:25:14.156Z,10.77
2019-02-04T08:27:42.855Z,14.50
2019-02-04T08:30:31.992Z,9.40
2019-02-04T08:33:01.233Z,11.03
2019-02-04T08:35:30.384Z,9.07
2019-02-04T08:37:59.155Z,11.90
2019-02-04T08:40:27.878Z,6.37
2019-02-04T08:42:56.799Z,10.50
2019-02-04T08:45:25.417Z,10.50
2019-02-04T08:47:53.950Z,7.50
2019-02-04T08:50:24.435Z,7.97
2019-02-04T08:52:53.072Z,5.83
2019-02-04T08:55:21.666Z,6.47
2019-02-04T08:57:50.979Z,7.63
2019-02-04T09:00:24.194Z,10.03
2019-02-04T09:02:52.847Z,7.90
2019-02-04T09:05:22.829Z,10.93
2019-02-04T09:07:51.547Z,6.50
2019-02-04T09:10:26.448Z,7.87
2019-02-04T09:12:55.179Z,7.83
2019-02-04T09:15:23.795Z,8.87
2019-02-04T09:17:52.486Z,10.70
2019-02-04T09:20:21.145Z,9.67
2019-02-04T09:22:49.835Z,9.73
2019-02-04T09:25:20.422Z,8.07
2019-02-04T09:27:49.335Z,7.10
2019-02-04T09:30:20.465Z,6.00
2019-02-04T09:32:49.283Z,5.90
2019-02-04T09:35:19.543Z,9.70
2019-02-04T09:37:48.171Z,11.10
2019-02-04T09:40:27.994Z,8.27
2019-02-04T09:42:56.678Z,7.03
2019-02-04T09:45:27.639Z,7.60
2019-02-04T09:47:55.723Z,8.87
2019-02-04T09:50:26.921Z,6.13
2019-02-04T09:52:55.618Z,8.77
2019-02-04T09:55:30.325Z,7.83
2019-02-04T09:57:59.103Z,8.17
2019-02-04T10:00:30.580Z,9.77
2019-02-04T10:02:59.190Z,8.63
2019-02-04T10:05:27.798Z,6.90
2019-02-04T10:07:56.360Z,10.50
2019-02-04T10:10:27.134Z,8.00
2019-02-04T10:12:55.755Z,14.30
2019-02-04T10:15:27.349Z,9.17
2019-02-04T10:17:57.200Z,9.17
2019-02-04T10:20:33.357Z,6.40
2019-02-04T10:22:55.997Z,5.47
2019-02-04T10:25:36.414Z,7.40
2019-02-04T10:28:05.674Z,8.37
2019-02-04T10:30:34.236Z,8.20
2019-02-04T10:33:02.770Z,7.37
2019-02-04T10:35:31.692Z,7.93
2019-02-04T10:38:00.364Z,8.73
2019-02-04T10:40:30.413Z,6.30
2019-02-04T10:42:59.078Z,8.63
2019-02-04T10:45:27.878Z,10.17
2019-02-04T10:47:57.093Z,9.03
2019-02-04T10:50:28.757Z,9.40
2019-02-04T10:52:57.463Z,7.53
2019-02-04T10:55:26.221Z,7.47
2019-02-04T10:57:55.012Z,6.83
2019-02-04T11:00:26.196Z,6.07
2019-02-04T11:02:54.811Z,13.20
2019-02-04T11:05:26.401Z,9.07
2019-02-04T11:07:55.086Z,9.67
2019-02-04T11:10:26.271Z,7.43
2019-02-04T11:12:54.997Z,9.70
2019-02-04T11:15:25.580Z,7.47
2019-02-04T11:17:53.860Z,8.70
2019-02-04T11:20:32.859Z,7.73
2019-02-04T11:23:01.619Z,7.00
2019-02-04T11:25:30.250Z,9.00
2019-02-04T11:27:58.899Z,8.57
2019-02-04T11:30:33.199Z,10.93
2019-02-04T11:33:02.187Z,7.93
2019-02-04T11:35:30.900Z,10.43
2019-02-04T11:37:59.433Z,8.87
2019-02-04T11:40:31.010Z,10.17
2019-02-04T11:42:59.647Z,10.00
2019-02-04T11:45:28.779Z,12.83
2019-02-04T11:47:57.794Z,10.97
2019-02-04T11:50:26.345Z,9.33
2019-02-04T11:52:54.972Z,10.30
2019-02-04T11:55:23.632Z,7.57
2019-02-04T11:57:52.239Z,10.73
2019-02-04T12:00:24.297Z,8.33
2019-02-04T12:02:53.956Z,9.20
2019-02-04T12:05:23.801Z,7.97
2019-02-04T12:07:52.968Z,7.87
2019-02-04T12:10:27.385Z,10.77
2019-02-04T12:12:55.983Z,11.57
2019-02-04T12:15:24.670Z,8.70
2019-02-04T12:17:53.563Z,11.67
2019-02-04T12:20:22.361Z,9.30
2019-02-04T12:22:51.289Z,21.03
2019-02-04T12:25:22.499Z,11.87
2019-02-04T12:27:51.080Z,9.03
2019-02-04T12:30:25.198Z,8.77
2019-02-04T12:32:53.756Z,10.20
2019-02-04T12:35:22.367Z,9.43
2019-02-04T12:37:51.144Z,9.33
2019-02-04T12:40:19.725Z,8.33
2019-02-04T12:42:48.743Z,8.00
2019-02-04T12:45:23.738Z,7.70
2019-02-04T12:47:52.792Z,9.13
2019-02-04T12:50:21.985Z,9.50
2019-02-04T12:52:50.539Z,8.23
2019-02-04T12:55:26.828Z,5.47
2019-02-04T12:57:55.403Z,9.97
2019-02-04T13:00:26.287Z,7.43
2019-02-04T13:02:55.057Z,8.60
2019-02-04T13:05:51.229Z,9.53
2019-02-04T13:08:21.016Z,8.57
2019-02-04T13:10:49.781Z,10.97
2019-02-04T13:13:18.931Z,7.77
2019-02-04T13:15:47.519Z,11.80
2019-02-04T13:18:16.135Z,6.10
2019-02-04T13:20:45.093Z,8.33
2019-02-04T13:23:13.798Z,9.23
2019-02-04T13:25:42.590Z,8.23
2019-02-04T13:28:13.456Z,7.47
2019-02-04T13:30:42.158Z,11.47
2019-02-04T13:33:11.339Z,7.60
2019-02-04T13:35:40.056Z,8.07
2019-02-04T13:38:08.724Z,9.40
2019-02-04T13:40:37.265Z,6.03
2019-02-04T13:43:05.966Z,5.27
2019-02-04T13:45:34.972Z,7.27
2019-02-04T13:48:04.285Z,8.47
2019-02-04T13:50:33.853Z,6.53
2019-02-04T13:53:02.421Z,8.07
2019-02-04T13:55:33.621Z,7.60
2019-02-04T13:58:02.261Z,7.03
2019-02-04T14:00:30.886Z,12.97
2019-02-04T14:03:00.507Z,5.27
2019-02-04T14:05:31.241Z,8.53
2019-02-04T14:08:00.412Z,10.23
2019-02-04T14:10:40.630Z,12.50
2019-02-04T14:13:09.520Z,7.27
2019-02-04T14:15:38.995Z,9.13
2019-02-04T14:18:08.411Z,6.20
2019-02-04T14:20:37.050Z,6.13
2019-02-04T14:23:05.821Z,6.30
2019-02-04T14:25:34.558Z,8.17
2019-02-04T14:28:04.380Z,7.47
2019-02-04T14:30:38.223Z,10.80
2019-02-04T14:33:07.080Z,6.70
2019-02-04T14:35:35.919Z,7.17
2019-02-04T14:38:05.812Z,5.93
2019-02-04T14:40:34.560Z,6.47
2019-02-04T14:43:11.701Z,10.20
2019-02-04T14:46:05.977Z,8.70
2019-02-04T14:48:43.259Z,6.73
2019-02-04T14:51:32.694Z,8.13
2019-02-04T14:54:37.643Z,5.07
2019-02-04T14:57:08.559Z,6.83
2019-02-04T14:59:39.656Z,9.67
2019-02-04T15:02:27.613Z,5.73
2019-02-04T15:05:16.965Z,9.73
2019-02-04T15:07:57.518Z,7.37
2019-02-04T15:10:32.289Z,6.23
2019-02-04T15:13:19.132Z,7.33
2019-02-04T15:16:12.042Z,9.80
2019-02-04T15:19:03.261Z,8.80
2019-02-04T15:21:52.946Z,8.00
2019-02-04T15:24:50.256Z,8.03
2019-02-04T15:27:39.893Z,7.53
2019-02-04T15:30:14.279Z,6.90
2019-02-04T15:33:02.695Z,6.47
2019-02-04T15:35:51.013Z,7.23
2019-02-04T15:38:25.368Z,7.10
2019-02-04T15:40:59.937Z,5.90
2019-02-04T15:43:43.505Z,9.77
2019-02-04T15:46:24.095Z,7.73
2019-02-04T15:48:58.404Z,6.70
2019-02-04T15:51:30.023Z,8.83
2019-02-04T15:53:59.435Z,6.63
2019-02-04T15:56:27.985Z,10.67
2019-02-04T15:58:56.529Z,8.77
2019-02-04T16:01:25.054Z,5.83
2019-02-04T16:03:53.545Z,9.77
2019-02-04T16:06:22.157Z,6.00
2019-02-04T16:08:50.928Z,8.60
2019-02-04T16:11:19.487Z,6.83
2019-02-04T16:13:48.002Z,5.43
2019-02-04T16:16:16.769Z,6.87
2019-02-04T16:18:45.245Z,7.37
2019-02-04T16:21:13.718Z,9.23
2019-02-04T16:23:42.561Z,6.97
2019-02-04T16:26:11.171Z,6.30
2019-02-04T16:28:42.760Z,8.17
2019-02-04T16:31:10.055Z,7.77
2019-02-04T16:33:38.608Z,4.60
2019-02-04T16:36:07.133Z,8.00
2019-02-04T16:38:35.687Z,7.47
2019-02-04T16:41:04.375Z,5.90
2019-02-04T16:43:32.909Z,5.67
2019-02-04T16:46:01.447Z,6.93
2019-02-04T16:48:30.052Z,6.97
2019-02-04T16:51:10.930Z,6.30
2019-02-04T16:53:29.014Z,6.00
2019-02-04T16:55:57.659Z,8.70
2019-02-04T16:58:26.208Z,6.37
2019-02-04T17:00:54.757Z,9.13
2019-02-04T17:03:23.299Z,11.63
2019-02-04T17:05:51.973Z,5.70
2019-02-04T17:08:20.813Z,6.83
2019-02-04T17:10:49.825Z,8.13
2019-02-04T17:13:18.368Z,8.93
2019-02-04T17:15:46.850Z,6.87
2019-02-04T17:18:15.407Z,9.50
2019-02-04T17:20:44.807Z,6.83
2019-02-04T17:23:22.114Z,10.93
2019-02-04T17:25:43.828Z,9.20
2019-02-04T17:28:12.446Z,9.03
2019-02-04T17:30:40.985Z,9.37
2019-02-04T17:33:09.458Z,8.33
2019-02-04T17:35:38.084Z,10.27
2019-02-04T17:38:06.681Z,7.53
2019-02-04T17:40:35.370Z,9.03
2019-02-04T17:43:04.456Z,10.97
2019-02-04T17:45:32.992Z,7.50
2019-02-04T17:48:01.600Z,10.17
2019-02-04T17:50:30.117Z,9.53
2019-02-04T17:52:58.665Z,11.73
2019-02-04T17:55:30.595Z,8.07
2019-02-04T17:57:59.134Z,9.27
2019-02-04T18:00:38.178Z,11.83
2019-02-04T18:03:07.123Z,8.40
2019-02-04T18:05:35.742Z,8.87
2019-02-04T18:08:04.829Z,9.37
2019-02-04T18:10:33.768Z,9.53
2019-02-04T18:13:02.287Z,7.83
2019-02-04T18:15:30.910Z,10.33
2019-02-04T18:17:59.462Z,6.43
2019-02-04T18:20:27.939Z,9.40
2019-02-04T18:22:56.544Z,13.43
2019-02-04T18:25:25.494Z,5.93
2019-02-04T18:27:54.100Z,9.40
2019-02-04T18:30:24.474Z,6.40
2019-02-04T18:32:53.518Z,9.10
2019-02-04T18:35:22.485Z,10.00
2019-02-04T18:37:52.710Z,9.93
2019-02-04T18:40:24.491Z,11.53
2019-02-04T18:42:53.563Z,10.23
2019-02-04T18:45:26.882Z,8.73
2019-02-04T18:47:55.594Z,9.00
2019-02-04T18:50:25.162Z,12.90
2019-02-04T18:52:53.864Z,9.67
2019-02-04T18:55:25.507Z,10.50
2019-02-04T18:57:54.127Z,7.07
2019-02-04T19:00:25.141Z,10.17
2019-02-04T19:02:53.882Z,6.60
2019-02-04T19:05:26.824Z,8.73
2019-02-04T19:07:55.593Z,9.90
2019-02-04T19:10:24.689Z,11.73
2019-02-04T19:12:53.307Z,8.33
2019-02-04T19:15:24.660Z,10.67
2019-02-04T19:17:55.261Z,9.30
2019-02-04T19:20:24.255Z,7.87
2019-02-04T19:22:52.792Z,9.10
2019-02-04T19:25:22.256Z,10.13
2019-02-04T19:27:52.133Z,7.63
2019-02-04T19:30:29.576Z,7.73
2019-02-04T19:33:01.383Z,9.13
2019-02-04T19:35:29.978Z,10.30
2019-02-04T19:37:58.583Z,8.37
2019-02-04T19:40:27.190Z,8.30
2019-02-04T19:42:55.670Z,10.30
2019-02-04T19:45:25.570Z,11.87
2019-02-04T19:47:54.626Z,7.77
2019-02-04T19:50:31.786Z,13.53
2019-02-04T19:53:00.463Z,9.43
2019-02-04T19:55:29.140Z,9.27
2019-02-04T19:57:57.599Z,11.30
2019-02-04T20:00:26.521Z,9.40
2019-02-04T20:02:55.138Z,11.10
2019-02-04T20:05:28.505Z,11.03
2019-02-04T20:07:57.363Z,8.93
2019-02-04T20:10:31.991Z,10.90
2019-02-04T20:13:00.592Z,10.73
2019-02-04T20:15:31.544Z,9.53
2019-02-04T20:18:00.240Z,11.00
2019-02-04T20:20:28.820Z,7.63
2019-02-04T20:22:57.457Z,10.17
2019-02-04T20:25:30.851Z,9.10
2019-02-04T20:27:59.735Z,9.73
2019-02-04T20:30:44.641Z,8.90
2019-02-04T20:33:03.932Z,10.63
2019-02-04T20:35:32.524Z,9.60
2019-02-04T20:38:01.176Z,8.83
2019-02-04T20:40:29.839Z,9.67
2019-02-04T20:42:58.465Z,9.30
2019-02-04T20:45:27.145Z,9.47
2019-02-04T20:47:55.706Z,9.50
2019-02-04T20:50:30.072Z,8.70
2019-02-04T20:52:58.721Z,8.27
2019-02-04T20:55:27.269Z,9.27
2019-02-04T20:57:56.466Z,6.33
2019-02-04T21:00:30.153Z,8.60
2019-02-04T21:03:01.683Z,8.50
2019-02-04T21:05:29.094Z,9.07
2019-02-04T21:07:57.633Z,9.57
2019-02-04T21:10:30.118Z,9.73
2019-02-04T21:12:58.944Z,8.33
2019-02-04T21:15:27.572Z,8.37
2019-02-04T21:17:56.120Z,8.37
2019-02-04T21:20:27.737Z,8.43
2019-02-04T21:22:56.749Z,12.13
2019-02-04T21:25:25.424Z,11.47
2019-02-04T21:27:54.298Z,13.27
2019-02-04T21:30:27.840Z,11.80
2019-02-04T21:32:56.994Z,10.53
2019-02-04T21:35:26.530Z,9.30
2019-02-04T21:37:55.236Z,9.97
2019-02-04T21:40:24.015Z,11.67
2019-02-04T21:42:52.631Z,12.27
2019-02-04T21:45:22.795Z,10.93
2019-02-04T21:47:51.471Z,14.33
2019-02-04T21:50:21.901Z,12.37
2019-02-04T21:52:50.778Z,15.90
2019-02-04T21:55:21.253Z,15.80
2019-02-04T21:57:49.861Z,12.83
2019-02-04T22:00:33.370Z,13.97
2019-02-04T22:03:01.994Z,14.43
2019-02-04T22:05:35.045Z,14.83
2019-02-04T22:08:04.528Z,14.10
2019-02-04T22:10:33.240Z,14.40
2019-02-04T22:13:01.795Z,13.87
2019-02-04T22:15:30.337Z,15.97
2019-02-04T22:17:58.946Z,12.77
2019-02-04T22:20:27.497Z,14.77
2019-02-04T22:22:56.058Z,16.30
2019-02-04T22:25:25.752Z,14.33
2019-02-04T22:27:54.490Z,14.93
2019-02-04T22:30:25.447Z,15.23
2019-02-04T22:32:54.331Z,13.60
2019-02-04T22:35:23.032Z,14.37
2019-02-04T22:37:51.629Z,11.90
2019-02-04T22:40:29.719Z,14.20
2019-02-04T22:42:58.338Z,14.30
2019-02-04T22:45:27.105Z,15.10
2019-02-04T22:47:55.813Z,13.40
2019-02-04T22:50:31.071Z,12.70
2019-02-04T22:53:02.362Z,13.57
2019-02-04T22:55:32.282Z,15.33
2019-02-04T22:58:00.985Z,15.23
2019-02-04T23:00:49.218Z,14.00
2019-02-04T23:03:20.723Z,11.53
2019-02-04T23:05:49.396Z,16.27
2019-02-04T23:08:17.973Z,18.43
2019-02-04T23:10:46.596Z,16.77
2019-02-04T23:13:15.163Z,17.33
2019-02-04T23:15:43.836Z,17.83
2019-02-04T23:18:12.967Z,15.43
2019-02-04T23:20:41.709Z,21.33
2019-02-04T23:23:10.323Z,18.33
2019-02-04T23:25:43.616Z,18.17
2019-02-04T23:28:09.277Z,19.30
2019-02-04T23:30:37.807Z,20.00
2019-02-04T23:33:06.804Z,18.43
2019-02-04T23:35:35.388Z,18.47
2019-02-04T23:38:04.938Z,19.10
2019-02-04T23:40:33.568Z,19.60
2019-02-04T23:43:02.111Z,19.10
2019-02-04T23:45:30.573Z,19.97
2019-02-04T23:47:59.594Z,16.70
2019-02-04T23:50:28.080Z,18.80
2019-02-04T23:52:56.708Z,19.33
2019-02-04T23:55:25.326Z,20.23
2019-02-04T23:57:53.806Z,19.93
